Seeley, CA

11:01 AM PDT on July 31, 2015 (GMT -0700)
El Centro Naval Air Facility | | Change Station
CLOSE
Current Station
Airport
Location: El Centro,
Elevation: -43 ft
Nearby Weather Stations

Elev -43 ft 32.83 °N, 115.66 °W | Updated 5 minutes ago

Partly Cloudy
Partly Cloudy
102 °F
Feels Like 102 °F
N
5
Wind Variable Wind from WNW

Today
High -- | Low -- °F
--% Chance of Precip.
Yesterday
High -- | Low -- °F
Precip. -- in
5:55 AM 7:42 PM
Full, 100% visible
Pressure 29.95 in
Visibility 10.0 miles
Clouds Few 7000 ft
Mostly Cloudy 25000 ft
Heat Index 102 °F
Dew Point 58 °F
Humidity 23%
Rainfall 0.00 in
Snow Depth Not available.
UV 5 out of 12
Pollen 5.20 out of 12
Air Quality Not available.
Flu Activity Not available.
METAR KNJK 311756Z 29004KT 10SM FEW070 BKN250 39/14 A2991 RMK AO2 SLP142 T03890144 10394 20289 58005

More Conditions Fewer Conditions

Pressure 29.95 in
Visibility 10.0 miles
Clouds Few 7000 ft
Mostly Cloudy 25000 ft
Heat Index 102 °F
Dew Point 58 °F
Humidity 23%
Rainfall 0.00 in
Snow Depth Not available.
UV 5 out of 12
Pollen 5.20 out of 12
Air Quality Not available.
Flu Activity Not available.
METAR KNJK 311756Z 29004KT 10SM FEW070 BKN250 39/14 A2991 RMK AO2 SLP142 T03890144 10394 20289 58005

More Conditions Fewer Conditions

10-Day Weather Forecast

×

Almanac

Astronomy

Jul. 31, 2015 Rise Set
Actual Time
Civil Twilight
Nautical Twilight
Astronomical Twilight
Moon
Length of Visible Light
Length of Day
Tomorrow will be .
, % of the Moon is Illuminated

Today's Extremes

State Highs State Lows

Community

WunderPhotos

Upload Photos

1,842,703 photos uploaded!

WunderBlogs® & News

Nearby

Air Quality

  Air Quality AQ Index Pollutant
Not available.

Snow Depth

Station Depth Elevation

Earthquake Activity

City Distance Mag. Time & Date
Minimum magnitude displayed is 2.5.

Coastal Water Temperatures

Place Temperature

Stations

Nearby Weather Stations

Station Location Temp. Windchill Dew Point Humidity Wind Precip. Elev Updated Type